Time;durP1;ratioP1;P1;durP2;ratioP2;P2;SDS_P1;SDS_P2;PMS_P1;PMS_P2;Temp;Humidity;BMP_temperature;BMP_pressure;BME280_temperature;BME280_humidity;BME280_pressure;Samples;Min_cycle;Max_cycle;Signal;HPM_P1;HPM_P2
2020/12/18 00:00:35;;;;;;;;;70.75;56.00;;;;;;;;5031935;28;8999;-73
2020/12/18 00:03:02;;;;;;;;;75.25;58.50;;;;;;;;5031365;28;8836;-73
2020/12/18 00:05:32;;;;;;;;;74.75;57.50;;;;;;;;5031952;28;8842;-73
2020/12/18 00:07:58;;;;;;;;;74.25;56.00;;;;;;;;5031742;28;8917;-74
2020/12/18 00:10:26;;;;;;;;;76.00;59.00;;;;;;;;5031551;28;8962;-73
2020/12/18 00:12:52;;;;;;;;;76.00;59.00;;;;;;;;5031561;28;8832;-73
2020/12/18 00:15:18;;;;;;;;;76.25;59.50;;;;;;;;5031393;28;8851;-74
2020/12/18 00:17:44;;;;;;;;;76.50;61.25;;;;;;;;5031785;28;8852;-73
2020/12/18 00:20:10;;;;;;;;;75.00;59.50;;;;;;;;5031341;28;8856;-75
2020/12/18 00:22:36;;;;;;;;;75.25;59.00;;;;;;;;5031553;28;8852;-73
2020/12/18 00:25:03;;;;;;;;;76.50;59.50;;;;;;;;5031163;28;8883;-73
2020/12/18 00:27:29;;;;;;;;;75.75;58.25;;;;;;;;5031262;28;8878;-73
2020/12/18 00:29:55;;;;;;;;;71.00;56.25;;;;;;;;5031482;28;8840;-74
2020/12/18 00:32:20;;;;;;;;;74.25;59.25;;;;;;;;5031084;28;8841;-74
2020/12/18 00:34:46;;;;;;;;;74.75;60.50;;;;;;;;5030968;28;9015;-74
2020/12/18 00:37:12;;;;;;;;;74.00;59.00;;;;;;;;5031337;28;9529;-75
2020/12/18 00:39:38;;;;;;;;;74.50;59.50;;;;;;;;5031177;28;8959;-74
2020/12/18 00:42:05;;;;;;;;;70.00;56.00;;;;;;;;5030954;28;8844;-74
2020/12/18 00:44:31;;;;;;;;;77.00;59.25;;;;;;;;5030721;28;8893;-74
2020/12/18 00:46:57;;;;;;;;;75.75;60.75;;;;;;;;5031165;28;8832;-73
2020/12/18 00:49:23;;;;;;;;;75.75;59.50;;;;;;;;5030884;28;8848;-73
2020/12/18 00:51:51;;;;;;;;;72.50;57.75;;;;;;;;5030981;28;8860;-74
2020/12/18 00:54:16;;;;;;;;;74.00;59.00;;;;;;;;5030712;28;8824;-74
2020/12/18 00:56:43;;;;;;;;;72.75;57.00;;;;;;;;5031069;28;9620;-74
2020/12/18 00:59:10;;;;;;;;;74.25;58.50;;;;;;;;5030795;28;8955;-75
2020/12/18 01:01:36;;;;;;;;;68.75;55.00;;;;;;;;5030740;28;8983;-73
2020/12/18 01:04:02;;;;;;;;;75.25;59.75;;;;;;;;5030766;28;8872;-74
2020/12/18 01:06:27;;;;;;;;;72.00;58.50;;;;;;;;5030525;28;8852;-73
2020/12/18 01:08:53;;;;;;;;;74.00;58.25;;;;;;;;5030604;28;8825;-74
2020/12/18 01:11:19;;;;;;;;;76.50;60.00;;;;;;;;5030547;28;8840;-74
2020/12/18 01:13:45;;;;;;;;;76.25;57.50;;;;;;;;5030495;28;8828;-74
2020/12/18 01:16:12;;;;;;;;;73.50;58.00;;;;;;;;5030487;28;8973;-74
2020/12/18 01:18:38;;;;;;;;;75.00;59.75;;;;;;;;5030862;28;8817;-74
2020/12/18 01:21:04;;;;;;;;;78.00;61.00;;;;;;;;5030289;28;9778;-74
2020/12/18 01:23:30;;;;;;;;;71.50;55.75;;;;;;;;5030459;28;8855;-74
2020/12/18 01:25:56;;;;;;;;;78.00;58.50;;;;;;;;5030667;28;8844;-74
2020/12/18 01:28:22;;;;;;;;;71.00;57.50;;;;;;;;5030267;28;8859;-74
2020/12/18 01:30:48;;;;;;;;;73.00;57.00;;;;;;;;5030461;28;8894;-74
2020/12/18 01:33:15;;;;;;;;;75.75;59.50;;;;;;;;5030351;28;8951;-75
2020/12/18 01:35:40;;;;;;;;;76.00;59.50;;;;;;;;5030607;28;8844;-74
2020/12/18 01:38:06;;;;;;;;;68.50;56.50;;;;;;;;5030282;28;8979;-74
2020/12/18 01:40:32;;;;;;;;;70.50;57.25;;;;;;;;5030513;28;9564;-74
2020/12/18 01:42:59;;;;;;;;;74.25;57.00;;;;;;;;5030269;28;8844;-74
2020/12/18 01:45:25;;;;;;;;;72.25;59.50;;;;;;;;5030242;28;8901;-73
2020/12/18 01:47:51;;;;;;;;;76.25;59.25;;;;;;;;5030296;28;8840;-74
2020/12/18 01:50:17;;;;;;;;;75.75;59.25;;;;;;;;5029871;28;8852;-74
2020/12/18 01:52:45;;;;;;;;;75.50;59.75;;;;;;;;5030364;28;8986;-74
2020/12/18 01:55:11;;;;;;;;;74.75;59.50;;;;;;;;5027054;28;8966;-74
2020/12/18 01:57:37;;;;;;;;;73.25;58.25;;;;;;;;5034361;28;8851;-74
2020/12/18 02:00:05;;;;;;;;;71.50;55.75;;;;;;;;5033968;28;8860;-74
2020/12/18 02:02:31;;;;;;;;;70.75;57.25;;;;;;;;5034081;28;8949;-74
2020/12/18 02:04:57;;;;;;;;;71.50;58.50;;;;;;;;5034012;28;8900;-74
2020/12/18 02:07:25;;;;;;;;;77.25;60.25;;;;;;;;5034068;28;8959;-73
2020/12/18 02:09:51;;;;;;;;;71.25;57.75;;;;;;;;5033972;28;8843;-74
2020/12/18 02:12:18;;;;;;;;;71.50;55.75;;;;;;;;5033729;28;8840;-74
2020/12/18 02:14:44;;;;;;;;;78.00;61.50;;;;;;;;5033870;28;8836;-74
2020/12/18 02:17:10;;;;;;;;;72.25;58.00;;;;;;;;5029738;28;8941;-73
2020/12/18 02:19:36;;;;;;;;;71.50;58.00;;;;;;;;5033878;28;8844;-72
2020/12/18 02:22:10;;;;;;;;;77.50;59.75;;;;;;;;5033503;28;8897;-74
2020/12/18 02:24:39;;;;;;;;;70.75;56.50;;;;;;;;5033735;28;8838;-74
2020/12/18 02:27:07;;;;;;;;;75.75;58.25;;;;;;;;5033493;28;8986;-74
2020/12/18 02:29:33;;;;;;;;;73.00;57.25;;;;;;;;5033782;28;8860;-74
2020/12/18 02:32:01;;;;;;;;;72.00;59.00;;;;;;;;5033435;28;8951;-73
2020/12/18 02:34:28;;;;;;;;;72.50;58.50;;;;;;;;5033446;28;8840;-73
2020/12/18 02:36:54;;;;;;;;;71.00;56.00;;;;;;;;5033444;28;8832;-73
2020/12/18 02:39:20;;;;;;;;;59.00;49.25;;;;;;;;5033223;28;8855;-73
2020/12/18 02:41:46;;;;;;;;;71.25;59.00;;;;;;;;5033312;28;8870;-72
2020/12/18 02:44:12;;;;;;;;;73.25;58.50;;;;;;;;5033306;28;9529;-73
2020/12/18 02:46:38;;;;;;;;;75.00;57.00;;;;;;;;5033365;28;8956;-73
2020/12/18 02:49:04;;;;;;;;;71.00;57.00;;;;;;;;5033405;28;8836;-73
2020/12/18 02:51:30;;;;;;;;;68.75;55.00;;;;;;;;5033225;28;9726;-74
2020/12/18 02:53:56;;;;;;;;;71.00;57.00;;;;;;;;5033240;28;8950;-73
2020/12/18 02:56:26;;;;;;;;;71.50;58.00;;;;;;;;5033030;28;8856;-73
2020/12/18 02:58:52;;;;;;;;;74.50;58.50;;;;;;;;5033154;28;8951;-74
2020/12/18 03:01:19;;;;;;;;;75.50;58.75;;;;;;;;5032793;28;8839;-74
2020/12/18 03:03:45;;;;;;;;;67.75;56.00;;;;;;;;5033323;28;8863;-75
2020/12/18 03:06:11;;;;;;;;;74.00;58.75;;;;;;;;5032396;28;8820;-75
2020/12/18 03:08:37;;;;;;;;;73.50;59.00;;;;;;;;5032972;28;8840;-73
2020/12/18 03:11:03;;;;;;;;;72.75;57.00;;;;;;;;5032862;28;8960;-73
2020/12/18 03:13:29;;;;;;;;;77.00;60.25;;;;;;;;5032754;28;9041;-75
2020/12/18 03:15:55;;;;;;;;;74.50;58.50;;;;;;;;5032827;28;8828;-74
2020/12/18 03:18:22;;;;;;;;;67.75;53.25;;;;;;;;5032449;28;8851;-74
2020/12/18 03:20:48;;;;;;;;;71.25;57.00;;;;;;;;5032711;28;8878;-73
2020/12/18 03:23:14;;;;;;;;;68.25;55.50;;;;;;;;5032384;28;8959;-74
2020/12/18 03:25:40;;;;;;;;;71.25;59.75;;;;;;;;5032916;28;8832;-74
2020/12/18 03:28:06;;;;;;;;;75.75;57.25;;;;;;;;5032424;28;8828;-73
2020/12/18 03:30:32;;;;;;;;;70.75;56.75;;;;;;;;5032779;28;8852;-73
2020/12/18 03:32:58;;;;;;;;;76.50;60.00;;;;;;;;5032125;28;9650;-73
2020/12/18 03:35:25;;;;;;;;;74.25;60.00;;;;;;;;5032303;28;8848;-73
2020/12/18 03:37:51;;;;;;;;;73.00;57.25;;;;;;;;5032588;28;8950;-75
2020/12/18 03:40:16;;;;;;;;;45.50;40.50;;;;;;;;5032120;28;9601;-73
2020/12/18 03:42:42;;;;;;;;;71.00;57.25;;;;;;;;5032302;28;8860;-73
2020/12/18 03:45:08;;;;;;;;;76.00;58.75;;;;;;;;5032250;28;8852;-73
2020/12/18 03:47:34;;;;;;;;;70.00;55.00;;;;;;;;5032211;28;8864;-74
2020/12/18 03:50:00;;;;;;;;;76.25;59.25;;;;;;;;5031698;28;8937;-73
2020/12/18 03:52:29;;;;;;;;;72.50;58.00;;;;;;;;5032402;28;8913;-74
2020/12/18 03:54:55;;;;;;;;;73.25;58.25;;;;;;;;5032005;28;8956;-73
2020/12/18 03:57:21;;;;;;;;;74.25;59.75;;;;;;;;5031979;28;8870;-74
2020/12/18 03:59:47;;;;;;;;;77.00;60.50;;;;;;;;5032032;28;8994;-75
2020/12/18 04:02:12;;;;;;;;;72.25;58.00;;;;;;;;5031604;28;9556;-74
2020/12/18 04:04:38;;;;;;;;;78.25;61.50;;;;;;;;5032154;28;8955;-73
2020/12/18 04:07:04;;;;;;;;;63.00;50.50;;;;;;;;5031712;28;8828;-75
2020/12/18 04:09:31;;;;;;;;;75.75;60.00;;;;;;;;5031854;28;8856;-74
2020/12/18 04:11:57;;;;;;;;;74.50;59.75;;;;;;;;5031546;28;9032;-73
2020/12/18 04:14:23;;;;;;;;;75.00;56.75;;;;;;;;5031822;28;8950;-73
2020/12/18 04:16:49;;;;;;;;;74.25;58.25;;;;;;;;5031466;28;9681;-73
2020/12/18 04:19:15;;;;;;;;;75.25;58.00;;;;;;;;5030719;28;8856;-73
2020/12/18 04:21:41;;;;;;;;;71.75;58.00;;;;;;;;5031636;28;8852;-74
2020/12/18 04:24:07;;;;;;;;;72.75;58.50;;;;;;;;5031228;28;8905;-73
2020/12/18 04:26:33;;;;;;;;;78.00;59.50;;;;;;;;5031460;28;8863;-73
2020/12/18 04:28:59;;;;;;;;;75.50;60.00;;;;;;;;5031084;28;8962;-73
2020/12/18 04:31:25;;;;;;;;;77.00;61.75;;;;;;;;5031272;28;8910;-73
2020/12/18 04:33:51;;;;;;;;;74.25;58.25;;;;;;;;5031313;28;8828;-73
2020/12/18 04:36:17;;;;;;;;;73.00;57.00;;;;;;;;5031135;28;8855;-73
2020/12/18 04:38:43;;;;;;;;;75.50;57.00;;;;;;;;5031311;28;8966;-73
2020/12/18 04:41:09;;;;;;;;;71.50;56.50;;;;;;;;5031525;28;8836;-73
2020/12/18 04:43:36;;;;;;;;;75.50;59.00;;;;;;;;5031293;28;8853;-73
2020/12/18 04:46:03;;;;;;;;;69.75;57.00;;;;;;;;5030908;28;8991;-73
2020/12/18 04:48:29;;;;;;;;;74.25;59.00;;;;;;;;5031107;28;8840;-73
2020/12/18 04:50:56;;;;;;;;;72.25;57.25;;;;;;;;5031058;28;8832;-74
2020/12/18 04:53:25;;;;;;;;;78.25;60.25;;;;;;;;5030810;28;8901;-72
2020/12/18 04:55:52;;;;;;;;;75.00;59.25;;;;;;;;5031136;28;8958;-73
2020/12/18 04:58:19;;;;;;;;;74.50;58.75;;;;;;;;5030676;28;9013;-73
2020/12/18 05:00:46;;;;;;;;;78.50;61.75;;;;;;;;5030951;28;8856;-72
2020/12/18 05:03:14;;;;;;;;;76.00;61.75;;;;;;;;5030694;28;9682;-72
2020/12/18 05:05:40;;;;;;;;;77.00;60.00;;;;;;;;5030948;28;8840;-72
2020/12/18 05:08:05;;;;;;;;;74.25;59.25;;;;;;;;5030582;28;8951;-73
2020/12/18 05:10:31;;;;;;;;;75.25;61.00;;;;;;;;5030784;28;8856;-73
2020/12/18 05:12:57;;;;;;;;;76.50;60.25;;;;;;;;5030389;28;8995;-73
2020/12/18 05:15:23;;;;;;;;;72.00;58.00;;;;;;;;5030754;28;8844;-73
2020/12/18 05:17:52;;;;;;;;;78.00;60.75;;;;;;;;5030828;28;8944;-73
2020/12/18 05:20:18;;;;;;;;;80.25;64.00;;;;;;;;5030317;28;8828;-74
2020/12/18 05:22:44;;;;;;;;;74.50;60.75;;;;;;;;5030681;28;8867;-74
2020/12/18 05:25:10;;;;;;;;;78.50;61.25;;;;;;;;5030410;28;8828;-74
2020/12/18 05:27:40;;;;;;;;;77.75;61.75;;;;;;;;5026584;28;8862;-74
2020/12/18 05:30:07;;;;;;;;;79.50;61.75;;;;;;;;5022218;28;8847;-74
2020/12/18 05:32:33;;;;;;;;;79.25;61.75;;;;;;;;5030432;28;8854;-74
2020/12/18 05:35:00;;;;;;;;;78.00;62.00;;;;;;;;5025823;28;8855;-75
2020/12/18 05:37:34;;;;;;;;;78.00;60.50;;;;;;;;5022812;28;8874;-75
2020/12/18 05:40:00;;;;;;;;;78.00;63.25;;;;;;;;5025950;28;8981;-77
2020/12/18 05:42:26;;;;;;;;;79.00;61.50;;;;;;;;5026336;28;8984;-76
2020/12/18 05:44:52;;;;;;;;;81.50;63.00;;;;;;;;5024694;28;8929;-72
2020/12/18 05:47:18;;;;;;;;;78.75;62.75;;;;;;;;5022598;28;8840;-73
2020/12/18 05:49:44;;;;;;;;;74.00;60.00;;;;;;;;5023202;28;8851;-74
2020/12/18 05:52:18;;;;;;;;;77.75;61.00;;;;;;;;5022171;28;9597;-73
2020/12/18 05:54:44;;;;;;;;;84.75;63.25;;;;;;;;5018899;28;8953;-74
2020/12/18 05:57:11;;;;;;;;;80.50;64.50;;;;;;;;5026274;28;8903;-73
2020/12/18 05:59:41;;;;;;;;;84.25;64.00;;;;;;;;5026482;28;8966;-74
2020/12/18 06:02:10;;;;;;;;;84.50;66.00;;;;;;;;5025982;28;8851;-73
2020/12/18 06:04:36;;;;;;;;;79.00;63.50;;;;;;;;5018786;28;8972;-73
2020/12/18 06:07:02;;;;;;;;;78.50;61.50;;;;;;;;5021466;28;8967;-74
2020/12/18 06:09:29;;;;;;;;;75.75;59.25;;;;;;;;5019581;28;8870;-73
2020/12/18 06:11:55;;;;;;;;;79.25;63.25;;;;;;;;5024541;28;8836;-75
2020/12/18 06:14:21;;;;;;;;;77.75;62.00;;;;;;;;4953726;28;10561;-75
2020/12/18 06:16:48;;;;;;;;;77.50;63.00;;;;;;;;5020832;28;8848;-73
2020/12/18 06:19:15;;;;;;;;;79.25;61.00;;;;;;;;5018749;28;8838;-75
2020/12/18 06:21:41;;;;;;;;;79.50;62.75;;;;;;;;5021902;28;8832;-72
2020/12/18 06:24:08;;;;;;;;;75.50;61.00;;;;;;;;5018465;28;8974;-75
2020/12/18 06:26:35;;;;;;;;;77.75;63.00;;;;;;;;5021846;28;8875;-74
2020/12/18 06:29:03;;;;;;;;;78.75;62.25;;;;;;;;5018856;28;8982;-72
2020/12/18 06:31:31;;;;;;;;;77.75;63.00;;;;;;;;5020810;28;8847;-74
2020/12/18 06:33:58;;;;;;;;;82.75;64.25;;;;;;;;5019483;28;8821;-75
2020/12/18 06:36:42;;;;;;;;;80.75;64.25;;;;;;;;5020941;28;8981;-73
2020/12/18 06:39:19;;;;;;;;;73.50;57.75;;;;;;;;5016534;28;8993;-73
2020/12/18 06:41:46;;;;;;;;;81.00;63.25;;;;;;;;5015626;28;8977;-73
2020/12/18 06:44:31;;;;;;;;;77.25;61.25;;;;;;;;5023786;28;9847;-73
2020/12/18 06:47:07;;;;;;;;;80.25;63.50;;;;;;;;5022700;28;9001;-73
2020/12/18 06:49:47;;;;;;;;;71.75;56.00;;;;;;;;5020932;28;8854;-76
2020/12/18 06:52:35;;;;;;;;;81.25;64.50;;;;;;;;5019653;28;9694;-72
2020/12/18 06:55:01;;;;;;;;;81.50;65.00;;;;;;;;5020295;28;8885;-73
2020/12/18 06:57:28;;;;;;;;;81.25;63.25;;;;;;;;5022428;28;8854;-74
2020/12/18 07:00:20;;;;;;;;;81.75;63.50;;;;;;;;5025578;28;8959;-73
2020/12/18 07:02:46;;;;;;;;;71.50;59.00;;;;;;;;5020281;28;8835;-73
2020/12/18 07:05:27;;;;;;;;;81.25;64.50;;;;;;;;5022837;28;9556;-74
2020/12/18 07:07:54;;;;;;;;;81.25;64.00;;;;;;;;5021755;28;8901;-73
2020/12/18 07:10:20;;;;;;;;;76.25;59.50;;;;;;;;5022270;28;8902;-74
2020/12/18 07:12:49;;;;;;;;;82.50;65.00;;;;;;;;5026495;28;8848;-77
2020/12/18 07:15:16;;;;;;;;;81.50;65.00;;;;;;;;5022067;28;8856;-75
2020/12/18 07:17:46;;;;;;;;;80.75;63.50;;;;;;;;5019802;28;8866;-75
2020/12/18 07:20:12;;;;;;;;;80.50;62.50;;;;;;;;5020122;28;9632;-78
2020/12/18 07:22:38;;;;;;;;;84.25;66.00;;;;;;;;5022674;28;8990;-77
2020/12/18 07:25:04;;;;;;;;;84.25;66.00;;;;;;;;5018318;28;8989;-77
2020/12/18 07:27:30;;;;;;;;;83.25;64.50;;;;;;;;5022288;28;8863;-79
2020/12/18 07:29:57;;;;;;;;;81.50;64.25;;;;;;;;5020046;28;8879;-78
2020/12/18 07:32:23;;;;;;;;;78.75;64.25;;;;;;;;5024598;28;8979;-78
2020/12/18 07:35:02;;;;;;;;;79.75;66.00;;;;;;;;5021313;28;8858;-80
2020/12/18 07:37:29;;;;;;;;;81.75;65.50;;;;;;;;5022933;28;8947;-78
2020/12/18 07:39:56;;;;;;;;;81.25;62.25;;;;;;;;5021684;28;8847;-76
2020/12/18 07:42:22;;;;;;;;;81.50;63.75;;;;;;;;5020097;28;8850;-76
2020/12/18 07:44:48;;;;;;;;;83.50;65.75;;;;;;;;5022984;28;8844;-73
2020/12/18 07:47:14;;;;;;;;;83.75;66.25;;;;;;;;5020711;28;8874;-71
2020/12/18 07:49:41;;;;;;;;;80.25;63.75;;;;;;;;5017503;28;8989;-73
2020/12/18 07:52:07;;;;;;;;;80.75;63.25;;;;;;;;5023648;28;8887;-76
2020/12/18 07:54:33;;;;;;;;;76.25;60.50;;;;;;;;5023485;28;8848;-81
2020/12/18 07:57:04;;;;;;;;;83.50;66.50;;;;;;;;5023783;28;8857;-80
2020/12/18 07:59:30;;;;;;;;;72.00;59.50;;;;;;;;5020863;28;8848;-82
2020/12/18 08:01:56;;;;;;;;;81.25;62.00;;;;;;;;5022101;28;8843;-82
2020/12/18 08:04:23;;;;;;;;;82.00;65.25;;;;;;;;5022258;28;9665;-80
2020/12/18 08:06:49;;;;;;;;;84.00;67.00;;;;;;;;5021395;28;8939;-80
2020/12/18 08:09:16;;;;;;;;;82.75;65.00;;;;;;;;5023071;28;8904;-74
2020/12/18 08:11:45;;;;;;;;;83.25;63.75;;;;;;;;5018359;28;8977;-80
2020/12/18 08:14:12;;;;;;;;;82.25;65.75;;;;;;;;5021103;28;8836;-84
2020/12/18 08:16:39;;;;;;;;;84.00;65.25;;;;;;;;5018545;28;8992;-85
2020/12/18 08:19:06;;;;;;;;;82.25;64.25;;;;;;;;5021057;28;8970;-85
2020/12/18 08:21:33;;;;;;;;;80.75;63.25;;;;;;;;5020795;28;8884;-85
2020/12/18 08:24:01;;;;;;;;;85.50;66.25;;;;;;;;5021175;28;9001;-83
2020/12/18 08:26:28;;;;;;;;;82.25;64.50;;;;;;;;5021201;28;8900;-75
2020/12/18 08:28:55;;;;;;;;;80.50;63.50;;;;;;;;5020930;28;8831;-75
2020/12/18 08:31:21;;;;;;;;;82.00;64.75;;;;;;;;5021470;28;8958;-75
2020/12/18 08:33:50;;;;;;;;;84.75;66.50;;;;;;;;5020428;28;8931;-77
2020/12/18 08:36:16;;;;;;;;;77.00;63.00;;;;;;;;5021842;28;8971;-76
2020/12/18 08:38:57;;;;;;;;;85.50;67.75;;;;;;;;5019922;28;8850;-76
2020/12/18 08:41:23;;;;;;;;;78.00;62.00;;;;;;;;5020234;28;8890;-75
2020/12/18 08:43:49;;;;;;;;;81.75;64.50;;;;;;;;5020722;28;8863;-74
2020/12/18 08:46:15;;;;;;;;;84.00;65.00;;;;;;;;5021982;28;9543;-75
2020/12/18 08:48:41;;;;;;;;;88.25;69.25;;;;;;;;5019306;28;8960;-80
2020/12/18 08:51:09;;;;;;;;;81.25;63.75;;;;;;;;5022092;28;9662;-75
2020/12/18 08:53:35;;;;;;;;;86.00;67.75;;;;;;;;5022812;28;8974;-74
2020/12/18 08:56:03;;;;;;;;;75.50;61.50;;;;;;;;5019596;28;8988;-75
2020/12/18 08:58:33;;;;;;;;;80.00;62.25;;;;;;;;5021639;28;8953;-75
2020/12/18 09:00:58;;;;;;;;;80.00;64.00;;;;;;;;5019567;28;8848;-74
2020/12/18 09:03:24;;;;;;;;;83.75;67.50;;;;;;;;5021153;28;8913;-75
2020/12/18 09:05:50;;;;;;;;;82.50;65.00;;;;;;;;5019783;28;8851;-76
2020/12/18 09:08:19;;;;;;;;;86.25;70.00;;;;;;;;5018510;28;8925;-76
2020/12/18 09:10:45;;;;;;;;;84.50;64.75;;;;;;;;5025743;28;8937;-77
2020/12/18 09:13:16;;;;;;;;;86.50;71.00;;;;;;;;5027289;28;8863;-76
2020/12/18 09:15:43;;;;;;;;;88.25;73.75;;;;;;;;5027175;28;8889;-73
2020/12/18 09:18:09;;;;;;;;;91.25;74.00;;;;;;;;5027691;28;8936;-73
2020/12/18 09:20:39;;;;;;;;;86.25;74.00;;;;;;;;5025864;28;8997;-73
2020/12/18 09:23:05;;;;;;;;;75.00;60.50;;;;;;;;5021329;28;8849;-74
2020/12/18 09:25:37;;;;;;;;;92.75;77.75;;;;;;;;5021753;28;9000;-74
2020/12/18 09:28:03;;;;;;;;;88.50;73.50;;;;;;;;5020479;28;8925;-73
2020/12/18 09:30:31;;;;;;;;;87.00;75.00;;;;;;;;5021607;28;8858;-73
2020/12/18 09:33:13;;;;;;;;;92.75;78.50;;;;;;;;5023470;28;8854;-75
2020/12/18 09:35:40;;;;;;;;;92.75;74.50;;;;;;;;5026539;28;8828;-74
2020/12/18 09:38:06;;;;;;;;;92.50;79.25;;;;;;;;5028858;28;9046;-76
2020/12/18 09:40:32;;;;;;;;;95.25;83.75;;;;;;;;5023700;28;9547;-74
2020/12/18 09:42:58;;;;;;;;;92.50;80.25;;;;;;;;5020446;28;8867;-74
2020/12/18 09:45:24;;;;;;;;;90.25;77.00;;;;;;;;5018988;28;9631;-74
2020/12/18 09:47:51;;;;;;;;;88.75;73.25;;;;;;;;5019549;28;8890;-75
2020/12/18 09:50:17;;;;;;;;;71.75;55.75;;;;;;;;5018268;28;8962;-78
2020/12/18 09:52:43;;;;;;;;;94.25;85.75;;;;;;;;5019671;28;8879;-76
2020/12/18 09:55:09;;;;;;;;;93.25;81.75;;;;;;;;5022089;28;8843;-77
2020/12/18 09:57:35;;;;;;;;;93.50;82.25;;;;;;;;5020606;28;8859;-76
2020/12/18 10:00:01;;;;;;;;;93.50;79.00;;;;;;;;5020227;28;8825;-73
2020/12/18 10:02:28;;;;;;;;;97.25;84.25;;;;;;;;5019059;28;8954;-74
2020/12/18 10:04:55;;;;;;;;;90.75;74.50;;;;;;;;5022514;28;8872;-75
2020/12/18 10:07:20;;;;;;;;;85.25;72.50;;;;;;;;5020560;28;8848;-72
2020/12/18 10:09:46;;;;;;;;;92.25;76.75;;;;;;;;5020710;28;8894;-73
2020/12/18 10:12:12;;;;;;;;;89.50;76.00;;;;;;;;5020260;28;9657;-76
2020/12/18 10:14:38;;;;;;;;;83.75;67.00;;;;;;;;5027231;28;8862;-73
2020/12/18 10:17:04;;;;;;;;;92.75;80.75;;;;;;;;5030647;28;8864;-76
2020/12/18 10:19:30;;;;;;;;;91.00;78.25;;;;;;;;5031271;28;8852;-73
2020/12/18 10:21:57;;;;;;;;;96.25;79.25;;;;;;;;5031310;28;9638;-73
2020/12/18 10:24:23;;;;;;;;;87.50;73.25;;;;;;;;5026061;28;8998;-73
2020/12/18 10:26:49;;;;;;;;;91.25;80.25;;;;;;;;5025617;28;8840;-74
2020/12/18 10:29:15;;;;;;;;;89.75;72.75;;;;;;;;5024979;28;8953;-76
2020/12/18 10:31:41;;;;;;;;;92.25;82.00;;;;;;;;5021085;28;8863;-73
2020/12/18 10:34:06;;;;;;;;;92.75;77.25;;;;;;;;5025889;28;8848;-73
2020/12/18 10:36:32;;;;;;;;;87.25;77.25;;;;;;;;5024164;28;8823;-73
2020/12/18 10:38:59;;;;;;;;;75.00;57.25;;;;;;;;5023513;28;8969;-73
2020/12/18 10:41:25;;;;;;;;;91.50;83.00;;;;;;;;5018921;28;8855;-75
2020/12/18 10:43:51;;;;;;;;;54.75;39.00;;;;;;;;5024189;28;8933;-74
2020/12/18 10:46:17;;;;;;;;;88.50;72.50;;;;;;;;5025462;28;8908;-73
2020/12/18 10:48:43;;;;;;;;;89.75;76.25;;;;;;;;5022383;28;8854;-76
2020/12/18 10:51:09;;;;;;;;;92.50;80.25;;;;;;;;5020553;28;8860;-75
2020/12/18 10:53:35;;;;;;;;;87.75;77.75;;;;;;;;5023558;28;8884;-75
2020/12/18 10:56:02;;;;;;;;;85.75;70.75;;;;;;;;5026464;28;8917;-75
2020/12/18 10:58:28;;;;;;;;;91.25;82.00;;;;;;;;5029344;28;8871;-73
2020/12/18 11:00:54;;;;;;;;;92.25;81.00;;;;;;;;5028080;28;8982;-71
2020/12/18 11:03:19;;;;;;;;;88.50;75.25;;;;;;;;5030740;28;8962;-69
2020/12/18 11:05:45;;;;;;;;;91.75;77.75;;;;;;;;5030815;28;8859;-70
2020/12/18 11:08:11;;;;;;;;;90.00;80.00;;;;;;;;5030572;28;8885;-70
2020/12/18 11:10:37;;;;;;;;;84.00;71.00;;;;;;;;5027914;28;8983;-67
2020/12/18 11:13:04;;;;;;;;;84.25;70.50;;;;;;;;5029937;28;8966;-68
2020/12/18 11:15:30;;;;;;;;;86.75;75.00;;;;;;;;5030502;28;8840;-68
2020/12/18 11:17:56;;;;;;;;;83.25;70.50;;;;;;;;5027050;28;8864;-67
2020/12/18 11:20:22;;;;;;;;;84.00;71.25;;;;;;;;5024132;28;8850;-68
2020/12/18 11:22:48;;;;;;;;;84.50;70.50;;;;;;;;5029438;28;8906;-68
2020/12/18 11:25:14;;;;;;;;;83.33;68.00;;;;;;;;5027643;28;8995;-68
2020/12/18 11:27:40;;;;;;;;;83.33;69.67;;;;;;;;5030214;28;8836;-67
2020/12/18 11:30:07;;;;;;;;;81.00;69.00;;;;;;;;5028982;28;8879;-68
2020/12/18 11:32:36;;;;;;;;;79.00;66.00;;;;;;;;5030160;28;8878;-69
2020/12/18 11:35:02;;;;;;;;;79.33;66.67;;;;;;;;5028983;28;8848;-70
2020/12/18 11:37:27;;;;;;;;;78.00;66.67;;;;;;;;5019727;28;8847;-70
2020/12/18 11:39:53;;;;;;;;;80.33;66.00;;;;;;;;5027085;28;8876;-69
2020/12/18 11:42:21;;;;;;;;;79.00;69.33;;;;;;;;5030251;28;8874;-70
2020/12/18 11:44:47;;;;;;;;;82.00;69.67;;;;;;;;5022154;28;9556;-70
2020/12/18 11:47:14;;;;;;;;;83.00;68.33;;;;;;;;5028413;28;8860;-71
2020/12/18 11:49:40;;;;;;;;;74.00;59.33;;;;;;;;5028329;28;8946;-70
2020/12/18 11:52:06;;;;;;;;;77.33;64.00;;;;;;;;5029482;28;9053;-72
2020/12/18 11:54:31;;;;;;;;;82.00;67.33;;;;;;;;5031058;28;8957;-70
2020/12/18 11:56:57;;;;;;;;;79.33;65.67;;;;;;;;5030022;28;8864;-69
2020/12/18 11:59:23;;;;;;;;;79.33;66.67;;;;;;;;5026304;28;9006;-70
2020/12/18 12:01:49;;;;;;;;;81.67;69.67;;;;;;;;5018925;28;8844;-70
2020/12/18 12:04:16;;;;;;;;;81.33;68.67;;;;;;;;5018276;28;9556;-71
2020/12/18 12:06:42;;;;;;;;;81.00;70.00;;;;;;;;5020550;28;8966;-71
2020/12/18 12:09:10;;;;;;;;;81.33;67.67;;;;;;;;5016060;28;8871;-68
2020/12/18 12:11:36;;;;;;;;;81.33;66.67;;;;;;;;5020772;28;8949;-68
2020/12/18 12:14:02;;;;;;;;;79.33;66.33;;;;;;;;5019140;28;8812;-69
2020/12/18 12:16:31;;;;;;;;;78.00;64.67;;;;;;;;5018191;28;8973;-68
2020/12/18 12:18:57;;;;;;;;;82.00;68.00;;;;;;;;5017906;28;8844;-68
2020/12/18 12:21:30;;;;;;;;;83.67;68.00;;;;;;;;5020428;28;9723;-68
2020/12/18 12:23:56;;;;;;;;;83.50;66.25;;;;;;;;5019461;28;8974;-68
2020/12/18 12:26:22;;;;;;;;;72.67;57.00;;;;;;;;5018470;28;8954;-69
2020/12/18 12:28:48;;;;;;;;;83.00;71.00;;;;;;;;5022257;28;8851;-69
2020/12/18 12:31:14;;;;;;;;;82.00;68.67;;;;;;;;5017338;28;8869;-69
2020/12/18 12:33:40;;;;;;;;;80.33;66.67;;;;;;;;5018776;28;8973;-69
2020/12/18 12:36:06;;;;;;;;;84.50;71.50;;;;;;;;5018587;28;8973;-70
2020/12/18 12:38:33;;;;;;;;;86.25;70.75;;;;;;;;5020248;28;8883;-71
2020/12/18 12:40:59;;;;;;;;;82.75;69.75;;;;;;;;5017497;28;9683;-71
2020/12/18 12:43:25;;;;;;;;;83.00;70.50;;;;;;;;5018492;28;9044;-73
2020/12/18 12:45:51;;;;;;;;;80.50;66.75;;;;;;;;5022543;28;8840;-70
2020/12/18 12:48:16;;;;;;;;;80.50;66.25;;;;;;;;5024461;28;8860;-70
2020/12/18 12:50:42;;;;;;;;;84.75;70.75;;;;;;;;5015286;28;8952;-72
2020/12/18 12:53:08;;;;;;;;;83.25;70.50;;;;;;;;5020600;28;9599;-71
2020/12/18 12:55:35;;;;;;;;;85.50;71.25;;;;;;;;5021632;28;9563;-70
2020/12/18 12:58:01;;;;;;;;;80.00;60.33;;;;;;;;5021928;28;8933;-71
2020/12/18 13:00:27;;;;;;;;;82.00;69.33;;;;;;;;5018708;28;8859;-69
2020/12/18 13:02:53;;;;;;;;;78.33;62.00;;;;;;;;5020770;28;8840;-70
2020/12/18 13:05:19;;;;;;;;;78.33;61.67;;;;;;;;5018270;28;8920;-70
2020/12/18 13:07:45;;;;;;;;;81.67;62.00;;;;;;;;5020541;28;8962;-68
2020/12/18 13:10:10;;;;;;;;;80.00;63.33;;;;;;;;5016619;28;8850;-68
2020/12/18 13:12:37;;;;;;;;;79.25;63.50;;;;;;;;5020458;28;9021;-68
2020/12/18 13:15:04;;;;;;;;;81.00;63.00;;;;;;;;5016818;28;8843;-69
2020/12/18 13:17:30;;;;;;;;;75.00;58.33;;;;;;;;5021727;28;8932;-70
2020/12/18 13:19:56;;;;;;;;;74.00;58.00;;;;;;;;5017590;28;8962;-70
2020/12/18 13:22:22;;;;;;;;;74.00;59.67;;;;;;;;5021070;28;8874;-70
2020/12/18 13:24:48;;;;;;;;;79.00;60.67;;;;;;;;5021615;28;8911;-68
2020/12/18 13:27:14;;;;;;;;;79.00;62.00;;;;;;;;5015143;28;8876;-67
2020/12/18 13:29:41;;;;;;;;;80.67;64.33;;;;;;;;5018194;28;8893;-69
2020/12/18 13:32:07;;;;;;;;;78.00;62.00;;;;;;;;5026917;28;8869;-70
2020/12/18 13:34:34;;;;;;;;;76.00;59.33;;;;;;;;5026999;28;8821;-72
2020/12/18 13:37:03;;;;;;;;;71.00;58.00;;;;;;;;5027078;28;8828;-71
2020/12/18 13:39:28;;;;;;;;;78.00;60.33;;;;;;;;5016969;28;8962;-70
2020/12/18 13:41:56;;;;;;;;;75.00;58.33;;;;;;;;5016928;28;8969;-69
2020/12/18 13:44:22;;;;;;;;;79.00;59.00;;;;;;;;5019008;28;8975;-72
2020/12/18 13:46:49;;;;;;;;;78.33;61.00;;;;;;;;5017531;28;8851;-72
2020/12/18 13:49:15;;;;;;;;;80.67;62.33;;;;;;;;5019452;28;8852;-69
2020/12/18 13:51:46;;;;;;;;;74.67;59.33;;;;;;;;5020286;28;8877;-73
2020/12/18 13:54:12;;;;;;;;;73.67;58.67;;;;;;;;5020451;28;8870;-71
2020/12/18 13:56:43;;;;;;;;;75.67;58.33;;;;;;;;5021154;28;9630;-73
2020/12/18 13:59:09;;;;;;;;;70.67;55.67;;;;;;;;5022138;28;9017;-69
2020/12/18 14:01:36;;;;;;;;;73.67;58.33;;;;;;;;5022239;28;8939;-72
2020/12/18 14:04:06;;;;;;;;;72.00;57.67;;;;;;;;5022571;28;8904;-72
2020/12/18 14:06:32;;;;;;;;;74.67;58.33;;;;;;;;5023490;28;8974;-71
2020/12/18 14:08:58;;;;;;;;;75.00;59.00;;;;;;;;5021618;28;8879;-72
2020/12/18 14:11:24;;;;;;;;;75.00;58.00;;;;;;;;5024466;28;8871;-72
2020/12/18 14:13:49;;;;;;;;;74.67;58.33;;;;;;;;5025199;28;8870;-72
2020/12/18 14:16:15;;;;;;;;;72.33;54.33;;;;;;;;5020058;28;8862;-71
2020/12/18 14:18:41;;;;;;;;;71.00;56.67;;;;;;;;5021658;28;8874;-70
2020/12/18 14:21:09;;;;;;;;;72.33;56.00;;;;;;;;5019324;28;8890;-71
2020/12/18 14:23:35;;;;;;;;;64.67;52.00;;;;;;;;5020937;28;8953;-73
2020/12/18 14:26:01;;;;;;;;;68.00;55.33;;;;;;;;5023949;28;8843;-72
2020/12/18 14:28:27;;;;;;;;;74.67;58.00;;;;;;;;5019903;28;8981;-72